createdAt,value
2023-03-08T00:00:19.497Z,100150.91
2023-03-08T00:02:54.522Z,100153.28
2023-03-08T00:05:57.049Z,100150.81
2023-03-08T00:08:49.868Z,100144.50
2023-03-08T00:11:23.415Z,100144.25
2023-03-08T00:13:52.209Z,100146.09
2023-03-08T00:16:21.017Z,100147.53
2023-03-08T00:18:55.837Z,100144.72
2023-03-08T00:21:25.356Z,100146.63
2023-03-08T00:23:57.403Z,100139.50
2023-03-08T00:26:28.664Z,100142.75
2023-03-08T00:29:05.293Z,100139.94
2023-03-08T00:32:03.400Z,100136.91
2023-03-08T00:34:32.929Z,100133.44
2023-03-08T00:37:06.576Z,100131.81
2023-03-08T00:39:40.387Z,100142.69
2023-03-08T00:42:09.596Z,100149.63
2023-03-08T00:44:42.031Z,100130.88
2023-03-08T00:47:15.995Z,100138.63
2023-03-08T00:50:11.298Z,100137.44
2023-03-08T00:52:39.915Z,100143.06
2023-03-08T00:55:10.642Z,100133.31
2023-03-08T00:57:42.656Z,100140.97
2023-03-08T01:00:16.007Z,100141.09
2023-03-08T01:02:44.077Z,100144.66
2023-03-08T01:05:12.587Z,100145.88
2023-03-08T01:08:21.170Z,100141.00
2023-03-08T01:10:54.597Z,100147.09
2023-03-08T01:13:41.369Z,100146.13
2023-03-08T01:16:23.753Z,100141.06
2023-03-08T01:18:57.010Z,100151.78
2023-03-08T01:21:27.739Z,100154.88
2023-03-08T01:23:59.006Z,100164.63
2023-03-08T01:26:32.337Z,100160.63
2023-03-08T01:29:02.365Z,100158.16
2023-03-08T01:31:41.058Z,100156.41
2023-03-08T01:34:11.706Z,100158.78
2023-03-08T01:36:40.928Z,100153.75
2023-03-08T01:39:13.597Z,100158.25
2023-03-08T01:41:43.490Z,100154.53
2023-03-08T01:44:16.897Z,100150.00
2023-03-08T01:46:45.360Z,100150.00
2023-03-08T01:49:27.569Z,100140.22
2023-03-08T01:52:03.061Z,100128.72
2023-03-08T01:54:40.364Z,100126.13
2023-03-08T01:57:22.354Z,100122.88
2023-03-08T01:59:53.940Z,100125.50
2023-03-08T02:02:28.416Z,100121.28
2023-03-08T02:04:57.543Z,100125.44
2023-03-08T02:07:27.496Z,100123.13
2023-03-08T02:09:56.336Z,100115.38
2023-03-08T02:12:24.827Z,100124.06
2023-03-08T02:14:53.518Z,100126.66
2023-03-08T02:17:23.603Z,100119.81
2023-03-08T02:20:19.702Z,100113.91
2023-03-08T02:22:52.278Z,100121.16
2023-03-08T02:25:27.010Z,100117.53
2023-03-08T02:27:56.495Z,100122.94
2023-03-08T02:30:30.087Z,100121.09
2023-03-08T02:32:59.183Z,100125.44
2023-03-08T02:35:30.652Z,100121.91
2023-03-08T02:37:58.723Z,100117.28
2023-03-08T02:40:26.402Z,100114.66
2023-03-08T02:42:56.574Z,100114.44
2023-03-08T02:45:24.786Z,100123.22
2023-03-08T02:47:53.734Z,100139.91
2023-03-08T02:50:21.684Z,100144.66
2023-03-08T02:52:55.548Z,100159.13
2023-03-08T02:55:27.318Z,100159.97
2023-03-08T02:57:57.163Z,100166.94
2023-03-08T03:00:28.846Z,100168.38
2023-03-08T03:02:59.324Z,100166.41
2023-03-08T03:05:34.077Z,100158.44
2023-03-08T03:08:13.498Z,100165.91
2023-03-08T03:10:58.278Z,100158.97
2023-03-08T03:13:43.772Z,100164.38
2023-03-08T03:16:19.440Z,100174.63
2023-03-08T03:19:05.416Z,100175.16
2023-03-08T03:21:44.743Z,100178.38
2023-03-08T03:24:18.378Z,100184.31
2023-03-08T03:26:54.875Z,100187.00
2023-03-08T03:29:25.653Z,100178.25
2023-03-08T03:32:01.403Z,100178.44
2023-03-08T03:35:00.594Z,100180.78
2023-03-08T03:37:37.164Z,100179.13
2023-03-08T03:40:07.011Z,100181.91
2023-03-08T03:42:35.898Z,100190.19
2023-03-08T03:45:11.860Z,100187.25
2023-03-08T03:47:44.199Z,100195.72
2023-03-08T03:50:16.379Z,100179.00
2023-03-08T03:53:16.988Z,100182.59
2023-03-08T03:55:47.614Z,100182.94
2023-03-08T03:58:18.477Z,100187.09
2023-03-08T04:01:17.970Z,100192.25
2023-03-08T04:03:57.740Z,100190.50
2023-03-08T04:06:32.771Z,100197.56
2023-03-08T04:09:08.496Z,100209.28
2023-03-08T04:11:44.262Z,100199.75
2023-03-08T04:14:19.795Z,100203.28
2023-03-08T04:16:50.434Z,100209.63
2023-03-08T04:19:29.760Z,100214.25
2023-03-08T04:22:02.385Z,100208.44
2023-03-08T04:24:43.678Z,100224.16
2023-03-08T04:27:18.031Z,100205.88
2023-03-08T04:29:56.066Z,100188.63
2023-03-08T04:32:30.559Z,100176.47
2023-03-08T04:34:59.789Z,100184.84
2023-03-08T04:37:37.467Z,100176.53
2023-03-08T04:40:14.956Z,100186.03
2023-03-08T04:42:55.957Z,100187.72
2023-03-08T04:45:33.526Z,100179.22
2023-03-08T04:48:07.504Z,100182.81
2023-03-08T04:50:42.275Z,100194.88
2023-03-08T04:53:21.193Z,100192.81
2023-03-08T04:55:57.324Z,100186.31
2023-03-08T04:58:34.415Z,100181.84
2023-03-08T05:01:23.898Z,100182.94
2023-03-08T05:04:07.411Z,100171.84
2023-03-08T05:06:49.410Z,100183.38
2023-03-08T05:09:23.774Z,100191.88
2023-03-08T05:11:59.075Z,100191.72
2023-03-08T05:14:41.074Z,100179.41
2023-03-08T05:17:09.434Z,100184.81
2023-03-08T05:19:41.477Z,100177.31
2023-03-08T05:22:13.770Z,100173.31
2023-03-08T05:24:53.712Z,100184.03
2023-03-08T05:27:23.431Z,100187.81
2023-03-08T05:29:54.923Z,100181.84
2023-03-08T05:32:23.613Z,100175.63
2023-03-08T05:35:02.753Z,100192.88
2023-03-08T05:37:42.488Z,100192.75
2023-03-08T05:40:13.300Z,100196.09
2023-03-08T05:42:44.976Z,100209.19
2023-03-08T05:45:16.594Z,100210.00
2023-03-08T05:47:46.245Z,100202.44
2023-03-08T05:50:14.401Z,100204.75
2023-03-08T05:52:46.989Z,100213.41
2023-03-08T05:55:26.059Z,100203.53
2023-03-08T05:57:54.407Z,100222.66
2023-03-08T06:00:23.257Z,100220.63
2023-03-08T06:03:04.149Z,100207.06
2023-03-08T06:05:35.312Z,100211.38
2023-03-08T06:08:16.265Z,100203.59
2023-03-08T06:10:46.519Z,100178.22
2023-03-08T06:13:17.201Z,100185.94
2023-03-08T06:15:45.089Z,100168.84
2023-03-08T06:18:16.560Z,100175.53
2023-03-08T06:20:59.525Z,100178.84
2023-03-08T06:23:31.135Z,100174.06
2023-03-08T06:25:59.923Z,100156.47
2023-03-08T06:28:31.112Z,100159.19
2023-03-08T06:31:05.352Z,100154.78
2023-03-08T06:33:36.131Z,100154.50
2023-03-08T06:36:06.647Z,100143.69
2023-03-08T06:38:37.250Z,100155.25
2023-03-08T06:41:06.303Z,100156.97
2023-03-08T06:43:36.478Z,100151.66
2023-03-08T06:46:10.765Z,100144.06
2023-03-08T06:48:40.896Z,100146.63
2023-03-08T06:51:09.373Z,100152.47
2023-03-08T06:53:38.843Z,100152.53
2023-03-08T06:56:11.657Z,100155.16
2023-03-08T06:58:39.669Z,100144.25
2023-03-08T07:01:09.880Z,100145.28
2023-03-08T07:03:39.835Z,100138.19
2023-03-08T07:06:09.981Z,100143.06
2023-03-08T07:08:42.327Z,100137.31
2023-03-08T07:11:10.875Z,100136.28
2023-03-08T07:13:40.123Z,100132.19
2023-03-08T07:16:12.905Z,100129.56
2023-03-08T07:18:44.559Z,100133.63
2023-03-08T07:21:13.147Z,100127.81
2023-03-08T07:23:44.694Z,100126.28
2023-03-08T07:26:13.626Z,100107.84
2023-03-08T07:28:43.209Z,100104.44
2023-03-08T07:31:12.477Z,100094.69
2023-03-08T07:33:41.524Z,100096.00
2023-03-08T07:36:09.328Z,100089.38
2023-03-08T07:38:37.442Z,100100.50
2023-03-08T07:41:08.916Z,100100.13
2023-03-08T07:43:37.007Z,100099.97
2023-03-08T07:46:10.298Z,100109.50
2023-03-08T07:48:40.165Z,100099.03
2023-03-08T07:51:18.390Z,100099.19
2023-03-08T07:53:47.980Z,100096.56
2023-03-08T07:56:19.418Z,100098.56
2023-03-08T07:58:48.785Z,100098.03
2023-03-08T08:01:16.907Z,100080.03
2023-03-08T08:03:45.992Z,100077.84
2023-03-08T08:06:16.898Z,100087.25
2023-03-08T08:08:45.450Z,100088.06
2023-03-08T08:11:38.728Z,100100.19
2023-03-08T08:14:08.814Z,100076.38
2023-03-08T08:16:36.794Z,100089.56
2023-03-08T08:19:06.460Z,100095.47
2023-03-08T08:21:44.419Z,100087.75
2023-03-08T08:24:12.634Z,100083.38
2023-03-08T08:26:41.602Z,100090.38
2023-03-08T08:29:09.761Z,100099.56
2023-03-08T08:31:40.593Z,100090.63
2023-03-08T08:34:13.600Z,100093.00
2023-03-08T08:36:42.800Z,100090.63
2023-03-08T08:39:16.528Z,100086.72
2023-03-08T08:41:50.013Z,100085.88
2023-03-08T08:44:18.281Z,100100.78
2023-03-08T08:46:55.151Z,100079.88
2023-03-08T08:49:25.765Z,100085.72
2023-03-08T08:51:53.877Z,100071.69
2023-03-08T08:54:22.683Z,100065.75
2023-03-08T08:56:51.154Z,100064.22
2023-03-08T08:59:19.098Z,100050.25
2023-03-08T09:01:47.388Z,100048.53
2023-03-08T09:04:17.691Z,100042.50
2023-03-08T09:06:48.998Z,100041.78
2023-03-08T09:09:18.425Z,100040.84
2023-03-08T09:11:54.603Z,100034.97
2023-03-08T09:14:24.365Z,100038.25
2023-03-08T09:16:53.265Z,100033.78
2023-03-08T09:19:24.338Z,100029.66
2023-03-08T09:21:53.460Z,100027.97
2023-03-08T09:24:21.893Z,100034.56
2023-03-08T09:26:51.414Z,100032.69
2023-03-08T09:29:19.755Z,100025.16
2023-03-08T09:31:47.645Z,100031.00
2023-03-08T09:34:16.800Z,100020.53
2023-03-08T09:36:45.458Z,100003.66
2023-03-08T09:39:14.063Z,100000.16
2023-03-08T09:42:00.739Z,100004.28
2023-03-08T09:44:44.080Z,100009.75
2023-03-08T09:47:24.290Z,99988.97
2023-03-08T09:49:56.218Z,99985.63
2023-03-08T09:52:33.597Z,99982.88
2023-03-08T09:55:04.433Z,99974.22
2023-03-08T09:57:41.778Z,99964.25
2023-03-08T10:00:20.929Z,99959.09
2023-03-08T10:03:14.340Z,99954.88
2023-03-08T10:05:53.659Z,99962.25
2023-03-08T10:08:39.395Z,99945.44
2023-03-08T10:11:20.233Z,99947.88
2023-03-08T10:13:52.927Z,99947.66
2023-03-08T10:16:33.948Z,99948.44
2023-03-08T10:19:10.506Z,99944.06
2023-03-08T10:21:42.106Z,99937.09
2023-03-08T10:24:19.028Z,99929.44
2023-03-08T10:26:46.650Z,99913.88
2023-03-08T10:29:14.573Z,99918.53
2023-03-08T10:31:47.243Z,99911.53
2023-03-08T10:34:20.490Z,99920.81
2023-03-08T10:36:56.859Z,99913.22
2023-03-08T10:39:24.761Z,99906.22
2023-03-08T10:41:59.399Z,99921.88
2023-03-08T10:44:40.238Z,99895.44
2023-03-08T10:47:30.850Z,99886.75
2023-03-08T10:50:20.786Z,99880.94
2023-03-08T10:52:51.074Z,99885.28
2023-03-08T10:55:19.861Z,99893.56
2023-03-08T10:57:58.612Z,99884.31
2023-03-08T11:00:32.246Z,99889.56
2023-03-08T11:03:20.197Z,99886.34
2023-03-08T11:06:14.873Z,99880.91
2023-03-08T11:08:55.899Z,99867.16
2023-03-08T11:11:23.781Z,99871.69
2023-03-08T11:13:54.168Z,99871.81
2023-03-08T11:16:46.552Z,99864.25
2023-03-08T11:19:36.237Z,99849.72
2023-03-08T11:22:03.841Z,99861.06
2023-03-08T11:24:47.109Z,99845.16
2023-03-08T11:27:33.606Z,99850.69
2023-03-08T11:30:17.468Z,99858.06
2023-03-08T11:33:42.119Z,99852.75
2023-03-08T11:36:35.386Z,99865.66
2023-03-08T11:39:28.977Z,99866.13
2023-03-08T11:42:06.723Z,99857.69
2023-03-08T11:44:53.139Z,99860.22
2023-03-08T11:47:39.215Z,99849.75
2023-03-08T11:50:41.294Z,99845.03
2023-03-08T11:53:22.982Z,99839.34
2023-03-08T11:56:09.290Z,99838.88
2023-03-08T11:58:49.310Z,99822.34
2023-03-08T12:01:25.097Z,99828.84
2023-03-08T12:03:57.994Z,99829.81
2023-03-08T12:06:45.578Z,99824.59
2023-03-08T12:09:28.390Z,99830.94
2023-03-08T12:12:03.666Z,99838.78
2023-03-08T12:14:35.406Z,99821.16
2023-03-08T12:17:19.252Z,99827.50
2023-03-08T12:19:49.871Z,99831.09
2023-03-08T12:22:20.356Z,99828.94
2023-03-08T12:25:09.652Z,99823.75
2023-03-08T12:27:49.358Z,99821.94
2023-03-08T12:30:44.031Z,99831.78
2023-03-08T12:33:15.443Z,99828.81
2023-03-08T12:35:59.465Z,99825.47
2023-03-08T12:38:37.810Z,99824.66
2023-03-08T12:41:34.826Z,99830.31
2023-03-08T12:44:23.677Z,99820.81
2023-03-08T12:47:03.235Z,99832.06
2023-03-08T12:49:40.720Z,99827.72
2023-03-08T12:52:20.680Z,99828.28
2023-03-08T12:55:02.516Z,99823.47
2023-03-08T12:57:48.458Z,99830.31
2023-03-08T13:00:39.386Z,99835.13
2023-03-08T13:03:14.094Z,99827.03
2023-03-08T13:05:50.341Z,99835.75
2023-03-08T13:08:23.880Z,99824.28
2023-03-08T13:11:26.659Z,99833.09
2023-03-08T13:14:00.951Z,99822.59
2023-03-08T13:16:37.014Z,99832.25
2023-03-08T13:19:14.971Z,99831.28
2023-03-08T13:22:09.308Z,99830.44
2023-03-08T13:24:46.891Z,99825.97
2023-03-08T13:27:27.404Z,99818.91
2023-03-08T13:30:18.524Z,99816.59
2023-03-08T13:32:49.533Z,99822.09
2023-03-08T13:35:18.827Z,99813.03
2023-03-08T13:37:55.769Z,99809.34
2023-03-08T13:40:24.159Z,99814.19
2023-03-08T13:42:55.315Z,99805.09
2023-03-08T13:45:24.235Z,99806.84
2023-03-08T13:47:53.278Z,99794.91
2023-03-08T13:50:26.859Z,99807.72
2023-03-08T13:52:55.012Z,99801.56
2023-03-08T13:55:33.962Z,99811.00
2023-03-08T13:58:03.082Z,99804.03
2023-03-08T14:00:36.189Z,99798.72
2023-03-08T14:03:07.774Z,99803.53
2023-03-08T14:05:43.970Z,99799.56
2023-03-08T14:08:25.037Z,99796.06
2023-03-08T14:11:03.858Z,99792.09
2023-03-08T14:13:38.567Z,99791.03
2023-03-08T14:16:09.561Z,99792.97
2023-03-08T14:18:43.704Z,99801.16
2023-03-08T14:21:31.226Z,99799.22
2023-03-08T14:24:01.702Z,99789.69
2023-03-08T14:26:38.381Z,99792.22
2023-03-08T14:29:26.927Z,99790.69
2023-03-08T14:31:59.310Z,99786.34
2023-03-08T14:34:48.103Z,99794.94
2023-03-08T14:37:25.498Z,99789.63
2023-03-08T14:40:24.649Z,99784.91
2023-03-08T14:42:56.747Z,99790.59
2023-03-08T14:45:29.551Z,99790.59
2023-03-08T14:47:59.967Z,99788.44
2023-03-08T14:50:33.240Z,99779.16
2023-03-08T14:53:03.118Z,99787.25
2023-03-08T14:55:35.994Z,99787.09
2023-03-08T14:58:11.770Z,99773.75
2023-03-08T15:00:55.915Z,99780.13
2023-03-08T15:03:23.929Z,99778.03
2023-03-08T15:05:52.909Z,99779.97
2023-03-08T15:08:21.835Z,99782.75
2023-03-08T15:10:50.655Z,99779.88
2023-03-08T15:13:22.411Z,99775.41
2023-03-08T15:15:54.032Z,99774.78
2023-03-08T15:18:23.239Z,99776.38
2023-03-08T15:20:52.204Z,99781.44
2023-03-08T15:23:27.069Z,99783.00
2023-03-08T15:25:54.947Z,99777.56
2023-03-08T15:28:23.667Z,99784.31
2023-03-08T15:30:54.888Z,99779.63
2023-03-08T15:33:23.151Z,99788.66
2023-03-08T15:35:52.108Z,99789.25
2023-03-08T15:38:21.561Z,99784.91
2023-03-08T15:40:52.153Z,99784.19
2023-03-08T15:43:21.037Z,99794.44
2023-03-08T15:45:48.535Z,99793.81
2023-03-08T15:48:18.685Z,99803.56
2023-03-08T15:50:47.098Z,99800.78
2023-03-08T15:53:26.188Z,99795.81
2023-03-08T15:56:00.910Z,99793.41
2023-03-08T15:58:28.752Z,99793.50
2023-03-08T16:00:56.320Z,99789.41
2023-03-08T16:03:31.076Z,99787.84
2023-03-08T16:05:59.853Z,99798.69
2023-03-08T16:08:29.109Z,99797.31
2023-03-08T16:11:03.914Z,99793.00
2023-03-08T16:13:34.329Z,99782.72
2023-03-08T16:16:03.700Z,99796.22
2023-03-08T16:18:32.311Z,99797.91
2023-03-08T16:21:00.199Z,99792.00
2023-03-08T16:23:27.850Z,99793.13
2023-03-08T16:26:15.245Z,99791.31
2023-03-08T16:28:47.085Z,99790.84
2023-03-08T16:31:16.355Z,99789.75
2023-03-08T16:33:44.846Z,99795.91
2023-03-08T16:36:12.984Z,99790.22
2023-03-08T16:38:43.439Z,99798.63
2023-03-08T16:41:13.886Z,99792.41
2023-03-08T16:43:47.934Z,99799.59
2023-03-08T16:46:19.724Z,99797.44
2023-03-08T16:48:54.449Z,99809.00
2023-03-08T16:51:26.254Z,99800.09
2023-03-08T16:53:54.851Z,99815.38
2023-03-08T16:56:26.440Z,99820.78
2023-03-08T16:58:56.527Z,99817.19
2023-03-08T17:01:27.344Z,99817.66
2023-03-08T17:03:56.407Z,99817.75
2023-03-08T17:06:27.812Z,99817.88
2023-03-08T17:08:57.926Z,99813.41
2023-03-08T17:11:28.559Z,99821.25
2023-03-08T17:14:08.484Z,99816.91
2023-03-08T17:16:43.584Z,99832.53
2023-03-08T17:19:13.310Z,99830.13
2023-03-08T17:21:41.199Z,99809.66
2023-03-08T17:24:14.255Z,99818.28
2023-03-08T17:26:46.816Z,99820.19
2023-03-08T17:29:15.124Z,99806.34
2023-03-08T17:31:42.905Z,99816.53
2023-03-08T17:34:16.384Z,99827.13
2023-03-08T17:36:46.782Z,99827.25
2023-03-08T17:39:14.761Z,99829.47
2023-03-08T17:41:43.083Z,99822.69
2023-03-08T17:44:11.404Z,99832.56
2023-03-08T17:46:39.359Z,99827.34
2023-03-08T17:49:07.856Z,99830.09
2023-03-08T17:51:35.483Z,99831.38
2023-03-08T17:54:03.354Z,99819.56
2023-03-08T17:56:32.639Z,99815.09
2023-03-08T17:59:03.138Z,99838.50
2023-03-08T18:01:32.332Z,99821.06
2023-03-08T18:04:00.879Z,99838.44
2023-03-08T18:06:36.646Z,99833.34
2023-03-08T18:09:08.143Z,99839.00
2023-03-08T18:11:38.004Z,99839.31
2023-03-08T18:14:06.349Z,99831.69
2023-03-08T18:16:34.798Z,99831.78
2023-03-08T18:19:06.718Z,99843.66
2023-03-08T18:21:38.808Z,99842.91
2023-03-08T18:24:09.258Z,99842.19
2023-03-08T18:26:37.253Z,99838.78
2023-03-08T18:29:05.057Z,99841.88
2023-03-08T18:31:35.206Z,99835.09
2023-03-08T18:34:03.258Z,99834.97
2023-03-08T18:36:31.320Z,99849.28
2023-03-08T18:38:58.982Z,99838.06
2023-03-08T18:41:29.672Z,99839.97
2023-03-08T18:44:00.846Z,99843.69
2023-03-08T18:46:30.654Z,99841.22
2023-03-08T18:49:07.047Z,99850.53
2023-03-08T18:51:37.507Z,99858.34
2023-03-08T18:54:06.066Z,99856.88
2023-03-08T18:56:35.299Z,99857.06
2023-03-08T18:59:05.354Z,99853.59
2023-03-08T19:01:34.149Z,99860.34
2023-03-08T19:04:07.100Z,99863.00
2023-03-08T19:06:36.245Z,99862.16
2023-03-08T19:09:12.089Z,99859.28
2023-03-08T19:11:40.329Z,99857.81
2023-03-08T19:14:09.755Z,99861.59
2023-03-08T19:16:37.445Z,99867.72
2023-03-08T19:19:08.920Z,99855.56
2023-03-08T19:21:41.380Z,99863.69
2023-03-08T19:24:11.675Z,99865.41
2023-03-08T19:26:41.195Z,99861.06
2023-03-08T19:29:19.824Z,99869.94
2023-03-08T19:32:05.344Z,99858.75
2023-03-08T19:34:36.962Z,99863.38
2023-03-08T19:37:06.649Z,99866.13
2023-03-08T19:39:37.408Z,99875.00
2023-03-08T19:42:12.363Z,99871.81
2023-03-08T19:44:40.916Z,99867.69
2023-03-08T19:47:10.249Z,99870.34
2023-03-08T19:49:40.036Z,99881.75
2023-03-08T19:52:08.330Z,99875.81
2023-03-08T19:54:37.141Z,99873.41
2023-03-08T19:57:05.519Z,99868.56
2023-03-08T19:59:38.755Z,99873.84
2023-03-08T20:02:09.105Z,99866.41
2023-03-08T20:04:36.924Z,99878.03
2023-03-08T20:07:05.013Z,99878.22
2023-03-08T20:09:33.768Z,99868.59
2023-03-08T20:12:01.428Z,99883.91
2023-03-08T20:14:30.718Z,99888.03
2023-03-08T20:16:59.719Z,99878.31
2023-03-08T20:19:32.023Z,99889.38
2023-03-08T20:22:00.879Z,99884.28
2023-03-08T20:24:35.528Z,99878.56
2023-03-08T20:27:04.320Z,99887.22
2023-03-08T20:29:31.944Z,99885.41
2023-03-08T20:31:59.664Z,99882.78
2023-03-08T20:34:27.598Z,99882.78
2023-03-08T20:36:56.368Z,99875.81
2023-03-08T20:39:24.472Z,99869.69
2023-03-08T20:41:53.885Z,99874.97
2023-03-08T20:44:21.646Z,99877.09
2023-03-08T20:46:49.324Z,99874.19
2023-03-08T20:49:17.859Z,99881.38
2023-03-08T20:51:47.951Z,99871.19
2023-03-08T20:54:23.267Z,99883.38
2023-03-08T20:56:50.946Z,99856.91
2023-03-08T20:59:23.214Z,99858.72
2023-03-08T21:01:51.384Z,99857.41
2023-03-08T21:04:19.521Z,99853.25
2023-03-08T21:06:48.342Z,99856.66
2023-03-08T21:09:16.529Z,99866.25
2023-03-08T21:11:45.281Z,99873.63
2023-03-08T21:14:13.111Z,99869.09
2023-03-08T21:16:41.702Z,99879.00
2023-03-08T21:19:09.589Z,99873.25
2023-03-08T21:21:42.644Z,99878.16
2023-03-08T21:24:17.187Z,99859.78
2023-03-08T21:26:45.709Z,99861.66
2023-03-08T21:29:16.019Z,99858.91
2023-03-08T21:31:50.311Z,99850.91
2023-03-08T21:34:19.920Z,99856.28
2023-03-08T21:36:48.915Z,99859.56
2023-03-08T21:39:18.846Z,99860.16
2023-03-08T21:41:49.215Z,99858.47
2023-03-08T21:44:18.071Z,99861.00
2023-03-08T21:46:47.037Z,99854.41
2023-03-08T21:49:23.302Z,99858.72
2023-03-08T21:51:52.010Z,99859.31
2023-03-08T21:54:22.465Z,99859.50
2023-03-08T21:56:50.475Z,99858.00
2023-03-08T21:59:19.041Z,99845.38
2023-03-08T22:01:48.619Z,99864.03
2023-03-08T22:04:17.758Z,99857.16
2023-03-08T22:06:46.500Z,99852.91
2023-03-08T22:09:14.247Z,99863.09
2023-03-08T22:11:42.058Z,99855.06
2023-03-08T22:14:11.768Z,99855.94
2023-03-08T22:16:42.255Z,99856.50
2023-03-08T22:19:11.187Z,99866.00
2023-03-08T22:21:38.809Z,99868.16
2023-03-08T22:24:10.228Z,99870.41
2023-03-08T22:26:37.973Z,99871.16
2023-03-08T22:29:05.783Z,99860.63
2023-03-08T22:31:34.663Z,99853.38
2023-03-08T22:34:03.349Z,99866.09
2023-03-08T22:36:31.082Z,99861.81
2023-03-08T22:38:58.664Z,99862.88
2023-03-08T22:41:27.942Z,99876.03
2023-03-08T22:43:56.100Z,99874.94
2023-03-08T22:46:27.471Z,99870.97
2023-03-08T22:48:59.218Z,99861.53
2023-03-08T22:51:28.550Z,99871.34
2023-03-08T22:53:56.874Z,99872.44
2023-03-08T22:56:29.690Z,99866.59
2023-03-08T22:58:58.151Z,99858.44
2023-03-08T23:01:30.831Z,99858.69
2023-03-08T23:04:00.508Z,99864.63
2023-03-08T23:06:30.012Z,99870.94
2023-03-08T23:08:59.822Z,99873.59
2023-03-08T23:11:29.334Z,99882.09
2023-03-08T23:13:57.964Z,99882.31
2023-03-08T23:16:26.869Z,99882.84
2023-03-08T23:18:55.246Z,99890.25
2023-03-08T23:21:25.033Z,99892.00
2023-03-08T23:23:57.449Z,99894.97
2023-03-08T23:26:27.522Z,99888.19
2023-03-08T23:28:56.224Z,99882.72
2023-03-08T23:31:26.578Z,99889.22
2023-03-08T23:33:55.505Z,99892.84
2023-03-08T23:36:25.668Z,99895.53
2023-03-08T23:38:55.384Z,99902.78
2023-03-08T23:41:27.103Z,99901.00
2023-03-08T23:43:59.778Z,99906.19
2023-03-08T23:46:30.545Z,99921.38
2023-03-08T23:49:02.055Z,99922.91
2023-03-08T23:51:33.932Z,99926.75
2023-03-08T23:54:03.719Z,99943.31
2023-03-08T23:56:40.199Z,99966.41
2023-03-08T23:59:18.517Z,99944.66
